LiveATC.Net - Listen to live air traffic control over the Internet! Contact LiveATC.net for advertising information


ICAO: YBAF  IATA: BNE   Airport: Archerfield Airport
City: Brisbane   State/Province: Queensland
Country: Australia   Continent: Oceania
YBBN METAR Weather: YBBN 010700Z 31010KT CAVOK 26/05 Q1011 FM0700 MOD TURB BLW 5000FT
YBAF Flight Activity (FlightAware)
YBAF Gnd/Twr
Feed Status: DOWN
Last heard on: 2014-07-20 23:12:03 (11 days 8 hours 36 minutes ago)
YBAF Gnd/Twr Audio Archives
FacilityFrequency
Brisbane Ground119.900
Brisbane Tower (North)123.600
Brisbane Tower/CTAF (South)118.100


NOTICE

Unauthorized use prohibited. See LiveATC.net Terms of Service


Find LiveATC Audio Streams


Airport/ARTCC Code

Frequency
(e.g., 124.400, 128.75)
Site-wide search

Browse LiveATC Feeds
LiveATC Coverage Map
Top 50 LiveATC Feeds
Bad Weather Areas

LiveATC FAQ
Offer a LiveATC Feed
Contact LiveATC.net
Press Inquiries

LiveATC on iPhone
LiveATC on Android

LiveATC Mobile
(Mobile browser)

ATC Audio Archives
Interesting Recordings

LiveATC Forums


Home Page
About LiveATC.net
Make a Donation
LiveATC Bookstore

Terms of Use
Privacy Policy

ATC/Radar Sites
U.S. ARTCC Freqs
Canadian Air Freqs

AIRMETs/SIGMETs

FAA Airport Status
Nat'l Airspace Status
Arrival Demand Charts


Server Software By:
Icecast.org
Liquidsoap

Please make a donation to help us keep growing!